Time;durP1;ratioP1;P1;durP2;ratioP2;P2;SDS_P1;SDS_P2;PMS_P1;PMS_P2;Temp;Humidity;BMP_temperature;BMP_pressure;BME280_temperature;BME280_humidity;BME280_pressure;Samples;Min_cycle;Max_cycle;Signal;HPM_P1;HPM_P2
2022/06/10 13:18:33;;;;;;;2.50;2.33;;;32.40;29.30;;;26.30;31.51;96174.19;5106717;27;20477;-53
2022/06/10 13:21:17;;;;;;;3.13;2.30;;;32.30;28.50;;;26.57;29.36;96169.00;5085928;28;20453;-48
2022/06/10 13:24:17;;;;;;;2.97;2.42;;;32.80;27.40;;;26.48;30.95;96155.50;5055617;28;20024;-48
2022/06/10 13:26:43;;;;;;;3.25;2.20;;;33.40;27.00;;;26.19;32.53;96171.19;5069288;28;20096;-49
2022/06/10 13:29:20;;;;;;;4.00;2.38;;;33.90;26.60;;;26.77;30.22;96162.50;5068043;28;20111;-48
2022/06/10 13:31:57;;;;;;;2.25;2.10;;;34.30;26.00;;;26.99;30.11;96158.28;5068037;28;20021;-48
2022/06/10 13:34:38;;;;;;;4.00;2.55;;;34.70;25.60;;;27.00;31.27;96152.47;5067983;28;20025;-48
2022/06/10 13:37:18;;;;;;;3.45;2.80;;;35.00;25.40;;;26.81;31.47;96157.09;5069173;28;20036;-49
2022/06/10 13:39:50;;;;;;;2.80;2.60;;;35.30;24.70;;;27.10;31.68;96158.53;5068137;28;20045;-52
2022/06/10 13:42:39;;;;;;;2.47;2.28;;;35.50;24.80;;;26.99;31.31;96150.09;5051677;28;20021;-49
2022/06/10 13:45:30;;;;;;;3.17;2.25;;;35.70;24.40;;;26.69;30.44;96149.78;5067872;28;20035;-48
2022/06/10 13:48:15;;;;;;;4.72;2.35;;;35.90;23.90;;;26.11;31.36;96146.81;5069180;28;20402;-52
2022/06/10 13:54:23;;;;;;;4.45;2.50;;;36.10;23.60;;;26.57;31.17;96144.44;5067950;28;20036;-48
2022/06/10 13:56:51;;;;;;;3.05;2.75;;;36.10;23.60;;;26.97;30.12;96142.25;5006148;28;20047;-50
2022/06/10 13:59:31;;;;;;;5.20;2.78;;;36.40;23.60;;;27.65;30.03;96140.94;5031198;28;20036;-50
2022/06/10 14:02:15;;;;;;;4.45;2.50;;;36.70;23.90;;;27.54;29.96;96142.66;5077042;28;20505;-50
2022/06/10 14:04:45;;;;;;;4.00;2.67;;;37.10;23.40;;;27.04;32.24;96154.47;5071750;28;20025;-50
2022/06/10 14:07:40;;;;;;;2.55;2.40;;;37.20;23.10;;;25.68;30.76;96148.38;5054684;28;20642;-53
2022/06/10 14:10:47;;;;;;;3.20;2.90;;;37.20;22.50;;;26.65;29.65;96138.78;5070844;28;20056;-49
2022/06/10 14:13:22;;;;;;;2.60;2.40;;;37.20;22.30;;;27.08;31.12;96153.44;5047976;28;20070;-49
2022/06/10 14:15:56;;;;;;;3.85;2.38;;;37.40;22.60;;;27.52;28.50;96139.53;5075819;28;20075;-50
2022/06/10 14:18:28;;;;;;;2.72;2.60;;;37.50;22.10;;;26.92;30.90;96148.00;5053193;28;20044;-50
2022/06/10 14:20:58;;;;;;;4.70;2.60;;;37.70;22.10;;;26.94;29.79;96137.47;5074333;28;20456;-54
2022/06/10 14:23:36;;;;;;;3.88;2.63;;;37.80;21.90;;;26.97;29.48;96131.31;5074467;28;20392;-49
2022/06/10 14:26:11;;;;;;;4.78;3.05;;;38.00;22.10;;;26.87;30.04;96137.34;5070961;28;20020;-50
2022/06/10 14:28:44;;;;;;;3.33;3.03;;;38.10;21.70;;;26.87;31.01;96142.00;5063129;28;20029;-48
2022/06/10 14:31:28;;;;;;;2.80;2.60;;;38.20;21.80;;;27.14;28.95;96130.16;5095371;28;20145;-50
2022/06/10 14:33:58;;;;;;;2.88;2.67;;;38.40;21.70;;;26.65;30.81;96127.06;5094423;28;20033;-50
2022/06/10 14:36:28;;;;;;;2.95;2.75;;;38.50;21.20;;;27.41;28.51;96133.03;5057349;28;20396;-48
2022/06/10 14:39:17;;;;;;;3.63;2.88;;;38.60;21.00;;;28.30;27.26;96131.19;5039060;28;20024;-50
2022/06/10 14:42:11;;;;;;;3.40;3.10;;;38.90;20.90;;;28.48;27.35;96140.50;5075820;28;20050;-48
2022/06/10 14:44:55;;;;;;;3.17;2.97;;;39.40;20.90;;;28.39;27.63;96123.47;5038944;28;20398;-48
2022/06/10 14:47:31;;;;;;;3.10;2.80;;;39.80;20.50;;;28.75;26.64;96124.09;5074487;28;20032;-52
2022/06/10 14:50:18;;;;;;;3.45;2.88;;;40.10;20.10;;;29.25;25.61;96128.31;5063538;28;20032;-52
2022/06/10 14:52:52;;;;;;;3.80;3.50;;;40.40;20.10;;;29.44;25.02;96123.84;5058336;28;20031;-48
2022/06/10 14:55:34;;;;;;;3.42;3.13;;;40.80;19.60;;;29.60;25.89;96120.91;5073720;28;20040;-48
2022/06/10 14:58:10;;;;;;;3.40;3.20;;;41.00;19.50;;;29.25;25.06;96125.59;5079430;28;20040;-53
2022/06/10 15:00:37;;;;;;;3.33;3.10;;;41.30;19.00;;;29.44;24.25;96123.84;5062713;28;20102;-54
2022/06/10 15:03:24;;;;;;;3.20;2.95;;;41.60;18.70;;;28.89;26.65;96115.25;5061410;28;20025;-50
2022/06/10 15:06:21;;;;;;;4.60;3.65;;;41.90;18.60;;;30.00;24.88;96114.69;5054442;28;20530;-48
2022/06/10 15:09:18;;;;;;;3.53;3.33;;;42.50;18.60;;;30.12;25.60;96113.63;5053322;28;20029;-49
2022/06/10 15:11:51;;;;;;;3.60;3.38;;;43.20;18.60;;;30.05;26.36;96103.34;5054119;28;20065;-49
2022/06/10 15:14:20;;;;;;;3.55;3.25;;;43.90;18.20;;;29.92;24.35;96110.28;5073433;22;20050;-56
2022/06/10 15:16:46;;;;;;;4.78;4.45;;;44.40;17.50;;;30.37;25.62;96106.41;5031780;28;20087;-58
2022/06/10 15:19:18;;;;;;;4.18;3.63;;;44.80;17.50;;;30.47;23.50;96107.66;5033177;28;20026;-55
2022/06/10 15:21:49;;;;;;;4.05;3.72;;;45.40;16.90;;;30.95;24.85;96110.34;5034324;28;20025;-56
2022/06/10 15:24:24;;;;;;;4.18;3.88;;;46.00;16.90;;;31.54;23.77;96111.06;5016264;28;20424;-58
2022/06/10 15:26:55;;;;;;;4.57;4.13;;;46.80;16.60;;;31.96;24.40;96108.81;5032959;28;20060;-55
2022/06/10 15:29:26;;;;;;;5.05;4.57;;;47.70;16.40;;;32.04;22.67;96110.41;5032880;28;20385;-59
2022/06/10 15:31:54;;;;;;;4.90;4.28;;;48.60;15.90;;;31.01;23.23;96094.28;5033042;28;20435;-59
2022/06/10 15:34:23;;;;;;;5.10;4.80;;;49.50;15.20;;;31.35;22.87;96103.13;5032093;28;20038;-59
2022/06/10 15:42:35;;;;;;;7.07;6.65;;;50.60;14.00;;;31.45;22.15;96098.84;5033754;28;20032;-59
2022/06/10 15:45:01;;;;;;;6.70;6.30;;;50.80;13.80;;;30.56;23.51;96096.34;5032259;28;20033;-57
2022/06/10 15:47:27;;;;;;;6.78;6.28;;;50.80;13.70;;;29.08;25.76;96092.44;5028681;28;20068;-59
2022/06/10 15:49:53;;;;;;;6.70;6.00;;;50.60;13.50;;;30.16;26.16;96085.00;5031573;28;20041;-59
2022/06/10 15:52:31;;;;;;;5.90;5.40;;;50.40;13.90;;;30.45;25.75;96088.00;5025543;28;20041;-54
2022/06/10 15:57:46;;;;;;;6.20;5.80;;;50.20;14.20;;;31.12;24.68;96086.88;5023134;28;20040;-57
2022/06/10 16:00:26;;;;;;;7.05;5.43;;;50.20;14.20;;;31.35;24.25;96083.84;5029251;28;20064;-57
2022/06/10 16:02:53;;;;;;;5.25;4.95;;;50.30;14.10;;;28.37;27.15;96082.78;5030164;28;20037;-58
2022/06/10 16:05:33;;;;;;;4.50;4.20;;;50.10;13.90;;;27.67;28.69;96080.38;5029546;28;20490;-58
2022/06/10 16:07:59;;;;;;;5.28;4.80;;;49.70;13.90;;;28.78;27.22;96074.78;5023101;28;20385;-59
2022/06/10 16:10:31;;;;;;;4.72;4.32;;;49.40;13.90;;;29.23;26.85;96080.47;5011216;28;20049;-58
2022/06/10 16:13:06;;;;;;;4.55;4.15;;;49.20;14.10;;;29.23;25.72;96075.78;5028639;28;20035;-54
2022/06/10 16:15:38;;;;;;;5.07;3.90;;;49.10;13.90;;;30.24;24.75;96077.63;5050570;28;20095;-58
2022/06/10 16:18:39;;;;;;;4.30;3.90;;;49.10;13.90;;;29.93;25.15;96082.47;5051365;28;20091;-53
2022/06/10 16:21:09;;;;;;;5.00;4.68;;;49.30;13.90;;;30.72;24.51;96076.81;5041447;28;20433;-52
2022/06/10 16:23:37;;;;;;;4.82;4.05;;;49.50;13.90;;;30.85;24.20;96086.34;5047559;28;20062;-57
2022/06/10 16:26:14;;;;;;;4.20;3.88;;;49.60;13.80;;;31.32;24.43;96088.13;5049459;28;20029;-58
2022/06/10 16:28:51;;;;;;;4.80;4.38;;;49.80;13.90;;;30.83;25.30;96083.19;5051947;28;20061;-52
2022/06/10 16:31:30;;;;;;;4.85;4.55;;;50.10;14.00;;;30.56;26.42;96080.63;5052195;28;20021;-59
2022/06/10 16:33:56;;;;;;;4.60;4.20;;;50.20;14.00;;;30.37;25.97;96083.66;5034451;28;20113;-56
2022/06/10 16:36:25;;;;;;;4.60;4.20;;;50.10;13.70;;;30.75;24.43;96087.81;5051773;28;20120;-59
2022/06/10 16:38:51;;;;;;;4.30;4.00;;;50.10;13.60;;;30.03;25.27;96082.94;5050190;28;20037;-57
2022/06/10 16:41:31;;;;;;;5.38;5.07;;;50.10;13.50;;;30.77;25.55;96077.25;5050093;28;20040;-58
2022/06/10 16:44:26;;;;;;;4.60;4.20;;;50.20;13.70;;;31.01;24.40;96080.53;5051460;28;20087;-58
2022/06/10 16:47:01;;;;;;;5.10;4.70;;;50.50;13.80;;;30.71;25.64;96076.00;5050076;28;20471;-58
2022/06/10 16:49:32;;;;;;;5.35;4.85;;;50.80;13.60;;;30.45;25.39;96079.75;5055218;28;20029;-59
2022/06/10 16:52:29;;;;;;;3.92;3.63;;;50.80;13.40;;;30.01;26.91;96080.56;5050106;28;20067;-58
2022/06/10 16:54:55;;;;;;;5.15;4.85;;;50.80;13.40;;;29.10;27.30;96076.41;5015509;28;20041;-58
2022/06/10 16:57:32;;;;;;;4.43;3.97;;;50.80;13.40;;;29.66;27.18;96073.56;5030229;28;20511;-58
2022/06/10 16:59:58;;;;;;;5.70;4.10;;;50.60;13.30;;;29.04;26.91;96075.94;5045596;28;20112;-58
2022/06/10 17:02:36;;;;;;;4.70;4.32;;;50.60;13.30;;;28.92;28.31;96087.91;5054170;28;20416;-59
2022/06/10 17:05:11;;;;;;;4.07;3.78;;;50.40;13.40;;;27.51;30.00;96079.69;5050235;28;20045;-58
2022/06/10 17:07:40;;;;;;;3.78;3.50;;;50.10;13.20;;;27.60;29.81;96077.50;5048597;28;20407;-56
2022/06/10 17:10:07;;;;;;;2.40;2.20;;;49.70;13.20;;;27.17;29.49;96073.94;5057862;28;20033;-58
2022/06/10 17:12:49;;;;;;;2.28;1.88;;;49.00;13.20;;;26.42;31.43;96072.25;5045332;28;20033;-58
2022/06/10 17:15:27;;;;;;;1.70;1.60;;;46.00;14.10;;;26.32;31.39;96073.59;5043445;28;20423;-57
2022/06/10 17:17:53;;;;;;;2.85;1.73;;;42.10;16.00;;;25.03;32.31;96070.19;5041898;28;20063;-55
2022/06/10 17:20:29;;;;;;;3.40;1.80;;;39.10;17.30;;;24.07;34.05;96067.22;5042809;28;20060;-53
2022/06/10 17:22:59;;;;;;;1.85;1.33;;;36.60;18.80;;;23.90;35.03;96066.31;5023969;28;20068;-57
2022/06/10 17:25:30;;;;;;;1.67;1.30;;;34.50;20.30;;;23.50;36.22;96068.81;5027081;28;20480;-56
2022/06/10 17:27:56;;;;;;;1.77;1.63;;;32.90;21.70;;;23.44;35.93;96072.88;5038753;28;20067;-55
2022/06/10 17:30:37;;;;;;;1.83;1.10;;;31.50;22.70;;;22.99;37.11;96076.31;5022506;28;20021;-56
2022/06/10 17:33:17;;;;;;;2.13;1.30;;;30.40;24.00;;;22.86;38.02;96078.94;5044746;28;20028;-53
2022/06/10 17:35:44;;;;;;;2.95;1.20;;;29.40;25.00;;;22.31;37.33;96074.53;5058128;28;20438;-54
2022/06/10 17:38:25;;;;;;;3.80;1.35;;;28.60;25.40;;;22.27;39.60;96070.06;5049135;28;20123;-54
2022/06/10 17:40:53;;;;;;;2.95;1.40;;;27.90;26.60;;;22.06;41.42;96080.81;5045439;28;20037;-55
2022/06/10 17:43:20;;;;;;;1.90;1.33;;;27.40;27.40;;;21.72;40.54;96074.44;5000136;28;20048;-56
2022/06/10 17:45:52;;;;;;;1.52;1.10;;;26.90;28.40;;;21.27;40.72;96072.88;5010995;28;20022;-55
2022/06/10 17:48:17;;;;;;;1.27;1.00;;;26.50;28.60;;;21.21;41.58;96074.16;5010886;28;20037;-56
2022/06/10 17:50:45;;;;;;;2.10;1.02;;;26.10;29.10;;;21.15;42.20;96080.88;5011001;28;20485;-56
2022/06/10 17:53:11;;;;;;;3.33;1.13;;;25.80;29.60;;;20.92;43.40;96077.53;5027210;28;20025;-56
2022/06/10 17:55:40;;;;;;;5.65;1.08;;;25.50;30.20;;;20.71;42.42;96077.34;5010940;28;20485;-56
2022/06/10 17:58:09;;;;;;;3.92;1.35;;;25.30;30.80;;;20.63;43.38;96080.06;5011884;28;20026;-56
2022/06/10 18:00:48;;;;;;;3.72;1.00;;;25.00;31.20;;;20.53;43.34;96087.38;5010770;28;20057;-55
2022/06/10 18:03:19;;;;;;;2.67;1.20;;;24.80;31.80;;;20.52;43.65;96084.97;5024769;28;20041;-56
2022/06/10 18:05:57;;;;;;;1.35;0.90;;;24.60;32.10;;;20.32;43.63;96083.66;5002839;28;20076;-55
2022/06/10 18:08:27;;;;;;;3.35;1.15;;;24.50;32.50;;;20.30;44.52;96086.66;5015217;28;20069;-56
2022/06/10 18:10:56;;;;;;;2.70;1.10;;;24.30;32.90;;;20.17;45.02;96087.56;5009248;28;20037;-55
2022/06/10 18:16:25;;;;;;;2.30;1.08;;;24.00;34.00;;;19.96;45.56;96081.94;5034691;28;20472;-55
2022/06/10 18:18:54;;;;;;;2.92;1.10;;;23.90;34.20;;;19.83;46.82;96085.53;5032470;28;20105;-56
2022/06/10 18:21:21;;;;;;;3.65;1.15;;;23.70;35.00;;;19.75;47.13;96086.31;5032606;28;20037;-54
2022/06/10 18:23:49;;;;;;;1.55;1.17;;;23.60;35.30;;;19.71;46.95;96088.00;5049742;28;20029;-49
2022/06/10 18:26:26;;;;;;;3.65;1.13;;;23.50;35.60;;;19.59;47.39;96092.06;5034124;28;20507;-55
2022/06/10 18:28:54;;;;;;;2.90;1.05;;;23.40;36.00;;;19.49;47.63;96080.72;5034127;28;20412;-56
2022/06/10 18:31:25;;;;;;;2.20;1.02;;;23.30;36.80;;;19.47;48.06;96078.34;5032673;28;20040;-53
2022/06/10 18:33:51;;;;;;;8.57;1.20;;;23.20;36.60;;;19.36;48.26;96082.38;5032776;28;20511;-54
2022/06/10 18:36:18;;;;;;;2.40;1.20;;;23.10;36.80;;;19.31;49.14;96080.63;5032706;28;20064;-52
2022/06/10 18:38:43;;;;;;;2.60;0.95;;;23.00;37.10;;;19.21;49.30;96082.75;5049514;28;20064;-53
2022/06/10 18:41:12;;;;;;;3.33;1.27;;;22.90;37.40;;;19.10;52.75;96076.81;5032638;28;20072;-56
2022/06/10 18:43:41;;;;;;;1.58;1.40;;;22.80;38.30;;;18.94;53.84;96090.69;5032680;28;20033;-54
2022/06/10 18:46:10;;;;;;;5.32;1.35;;;22.60;38.80;;;18.67;54.21;96091.50;5034003;28;20072;-56
2022/06/10 18:48:47;;;;;;;4.20;1.38;;;22.50;39.40;;;18.42;55.34;96090.16;5032637;28;20076;-56
2022/06/10 18:51:21;;;;;;;4.28;1.40;;;22.30;40.30;;;18.28;55.98;96089.41;5033578;28;20035;-55
2022/06/10 18:53:49;;;;;;;1.10;1.00;;;22.10;40.60;;;17.99;56.91;96084.31;5032556;28;20076;-48
2022/06/10 18:56:18;;;;;;;1.73;1.20;;;21.80;41.00;;;17.83;58.05;96096.47;5049184;28;20444;-56
2022/06/10 18:58:48;;;;;;;2.80;1.10;;;21.70;41.80;;;17.63;59.36;96089.53;5032346;28;20480;-53
2022/06/10 19:01:25;;;;;;;2.03;1.13;;;21.50;42.50;;;17.46;60.12;96090.13;5031887;28;20029;-56
2022/06/10 19:03:53;;;;;;;1.77;1.45;;;21.30;43.30;;;17.31;59.94;96097.34;5016065;28;20495;-56
2022/06/10 19:06:21;;;;;;;2.20;1.20;;;21.00;43.30;;;17.14;60.07;96089.00;5033491;28;20037;-53
2022/06/10 19:08:48;;;;;;;2.30;1.30;;;20.80;43.70;;;17.04;60.93;96100.72;5032306;28;20036;-54
2022/06/10 19:11:25;;;;;;;1.15;1.05;;;20.70;44.30;;;16.86;62.88;96096.19;5033296;28;20125;-56
2022/06/10 19:13:52;;;;;;;2.85;1.52;;;20.50;45.30;;;16.71;63.57;96099.84;5032811;28;20049;-56
2022/06/10 19:16:29;;;;;;;2.80;1.20;;;20.40;45.50;;;16.51;64.12;96092.06;5032028;28;20492;-50
2022/06/10 19:19:23;;;;;;;1.75;1.40;;;20.20;46.20;;;16.32;64.87;96100.91;5032048;28;20091;-53
2022/06/10 19:22:00;;;;;;;3.80;1.20;;;20.00;46.70;;;16.17;65.50;96101.09;5031800;28;20451;-53
2022/06/10 19:24:33;;;;;;;4.55;1.40;;;19.80;47.20;;;15.98;65.80;96089.50;5031865;28;20498;-56
2022/06/10 19:27:03;;;;;;;2.95;1.30;;;19.70;47.60;;;15.83;66.17;96096.66;5028496;28;20033;-55
2022/06/10 19:29:30;;;;;;;2.20;1.60;;;19.50;47.80;;;15.71;66.76;96099.72;5035308;28;20038;-54
2022/06/10 19:32:06;;;;;;;1.92;1.40;;;19.30;48.10;;;15.54;67.96;96104.69;5043535;28;20035;-54
2022/06/10 19:34:50;;;;;;;2.92;1.20;;;19.20;48.80;;;15.34;68.55;96108.34;5041992;28;20554;-56
2022/06/10 19:37:28;;;;;;;1.33;1.20;;;19.10;49.50;;;15.24;68.78;96106.56;5045515;28;20041;-55
2022/06/10 19:39:59;;;;;;;2.75;1.27;;;18.90;49.70;;;15.09;69.03;96112.03;5030026;28;20107;-56
2022/06/10 19:42:41;;;;;;;5.35;1.60;;;18.70;49.90;;;14.93;69.65;96110.56;5035148;28;20029;-55
2022/06/10 19:45:15;;;;;;;2.45;1.60;;;18.60;50.30;;;14.85;69.76;96114.63;5014545;28;20067;-55
2022/06/10 19:47:56;;;;;;;2.35;1.63;;;18.50;50.50;;;14.65;70.44;96117.44;5031670;28;20100;-56
2022/06/10 19:50:28;;;;;;;2.22;1.75;;;18.30;51.20;;;14.54;71.31;96125.56;5029984;28;20427;-54
2022/06/10 19:53:07;;;;;;;2.10;1.45;;;18.20;51.40;;;14.45;71.06;96129.06;5031829;28;20038;-54
2022/06/10 19:55:41;;;;;;;2.00;1.15;;;18.10;51.80;;;14.34;71.12;96134.44;5031608;28;20029;-55
2022/06/10 19:58:23;;;;;;;1.77;1.40;;;18.00;51.90;;;14.11;71.50;96116.34;5031171;28;20119;-52
2022/06/10 20:00:50;;;;;;;3.40;1.70;;;17.80;52.50;;;14.16;72.17;96128.88;5030859;28;20095;-56
2022/06/10 20:03:24;;;;;;;3.55;1.60;;;17.80;52.40;;;14.10;71.97;96139.66;5029833;28;20033;-54
2022/06/10 20:05:50;;;;;;;4.35;1.45;;;17.70;52.80;;;14.03;72.38;96136.44;5046896;28;20095;-53
2022/06/10 20:08:20;;;;;;;3.35;1.40;;;17.60;52.90;;;13.94;72.34;96137.25;5029980;28;20036;-56
2022/06/10 20:10:51;;;;;;;2.58;1.88;;;17.50;53.20;;;13.82;72.84;96134.88;5030531;28;20104;-53
2022/06/10 20:13:17;;;;;;;2.90;1.70;;;17.40;53.30;;;13.76;73.14;96136.00;5030157;28;20195;-51
2022/06/10 20:15:57;;;;;;;2.72;1.58;;;17.30;53.50;;;13.60;73.80;96125.31;5013752;28;20029;-56
2022/06/10 20:18:29;;;;;;;2.47;1.90;;;17.20;54.00;;;13.54;74.45;96137.09;5029230;28;20025;-51
2022/06/10 20:20:55;;;;;;;1.92;1.63;;;17.10;54.80;;;13.47;74.86;96135.75;5046281;28;20075;-53
2022/06/10 20:23:29;;;;;;;2.00;1.40;;;17.10;54.30;;;13.41;74.69;96134.94;5031126;28;20500;-52
2022/06/10 20:26:03;;;;;;;2.38;2.00;;;17.00;54.60;;;13.33;75.20;96138.97;5029211;28;20515;-56
2022/06/10 20:28:30;;;;;;;2.85;1.60;;;16.90;54.80;;;13.28;75.33;96136.28;5030701;28;20454;-55
2022/06/10 20:31:00;;;;;;;2.35;1.67;;;16.90;55.00;;;13.25;75.35;96133.34;5029637;28;20034;-56
2022/06/10 20:33:33;;;;;;;4.88;1.63;;;16.80;55.30;;;13.16;75.73;96127.69;5030028;28;20033;-54
2022/06/10 20:36:04;;;;;;;;;;;16.70;55.60;;;13.13;76.16;96129.03;5030444;28;20083;-53
2022/06/10 20:38:36;;;;;;;2.33;1.77;;;16.60;55.00;;;13.08;76.16;96120.22;5031546;28;19920;-55
2022/06/10 20:41:03;;;;;;;5.07;1.50;;;16.60;55.40;;;12.92;76.35;96111.38;5030595;28;20029;-51
2022/06/10 20:43:30;;;;;;;4.30;1.70;;;16.60;55.70;;;12.92;76.68;96114.84;5031856;28;20029;-55
2022/06/10 20:46:04;;;;;;;5.25;1.90;;;16.50;55.90;;;12.90;76.65;96119.66;5030686;28;20076;-55
2022/06/10 20:48:37;;;;;;;3.40;1.85;;;16.50;56.20;;;12.82;77.16;96127.41;5030370;28;20125;-56
2022/06/10 20:51:14;;;;;;;3.63;1.98;;;16.40;56.30;;;12.78;77.39;96126.31;5047262;28;20059;-54
2022/06/10 20:53:49;;;;;;;3.10;2.28;;;16.40;56.60;;;12.74;77.41;96123.38;5030671;28;20041;-55
2022/06/10 20:56:17;;;;;;;8.20;2.17;;;16.30;56.80;;;12.70;77.66;96122.31;5031785;28;20116;-55
2022/06/10 20:58:45;;;;;;;2.75;2.13;;;16.30;56.80;;;12.66;78.02;96123.88;5031408;28;20476;-54
2022/06/10 21:01:29;;;;;;;3.85;1.83;;;16.30;57.10;;;12.68;77.60;96122.56;5031621;28;20365;-52
2022/06/10 21:09:30;;;;;;;2.75;2.10;;;16.20;57.00;;;12.62;78.16;96122.81;5030740;28;20033;-51
2022/06/10 21:11:59;;;;;;;3.08;2.13;;;16.10;57.40;;;12.61;78.11;96121.22;5031562;28;20049;-52
2022/06/10 21:14:28;;;;;;;3.72;2.00;;;16.10;58.40;;;12.60;78.25;96125.75;5043800;22;20080;-48
2022/06/10 21:16:54;;;;;;;3.45;2.00;;;16.10;58.10;;;12.58;77.84;96121.75;5047016;28;20033;-47
2022/06/10 21:19:30;;;;;;;3.78;2.10;;;16.10;58.00;;;12.55;78.25;96116.94;5040823;28;20603;-47
2022/06/10 21:21:59;;;;;;;2.60;2.20;;;16.10;58.40;;;12.49;78.15;96127.59;5032361;28;20072;-49
2022/06/10 21:24:30;;;;;;;6.53;2.25;;;16.00;58.40;;;12.49;78.04;96122.25;5037948;28;20098;-50
2022/06/10 21:27:02;;;;;;;2.70;1.73;;;16.00;58.50;;;12.49;77.79;96122.25;5052157;28;20065;-47
2022/06/10 21:29:30;;;;;;;8.03;1.97;;;16.00;58.60;;;12.49;77.44;96124.13;5017750;28;20063;-48
2022/06/10 21:32:00;;;;;;;6.60;2.47;;;16.00;58.60;;;12.47;77.87;96119.06;5052120;28;20033;-47
2022/06/10 21:34:35;;;;;;;3.85;2.30;;;16.00;58.70;;;12.49;77.74;96122.25;5045312;28;20037;-51
2022/06/10 21:37:04;;;;;;;9.05;2.70;;;16.00;59.00;;;12.47;77.32;96118.22;5030842;28;20109;-51
2022/06/10 21:39:46;;;;;;;2.95;2.10;;;16.00;58.80;;;12.47;77.45;96123.56;5041977;28;20032;-49
2022/06/10 21:45:11;;;;;;;5.95;2.38;;;15.90;58.80;;;12.37;77.89;96119.00;5054954;28;20085;-51
2022/06/10 21:47:47;;;;;;;4.10;2.20;;;15.90;58.80;;;12.34;78.32;96118.72;5038153;28;20024;-48
2022/06/10 21:50:24;;;;;;;3.70;2.40;;;15.90;59.00;;;12.29;78.38;96127.53;5053186;28;20043;-53
2022/06/10 21:52:54;;;;;;;4.63;2.30;;;15.90;59.00;;;12.22;78.93;96118.94;5036031;28;20030;-51
2022/06/10 21:55:25;;;;;;;7.45;2.50;;;15.80;58.90;;;12.14;79.23;96125.59;5034519;28;20029;-54
2022/06/10 21:57:51;;;;;;;5.10;2.50;;;15.80;59.00;;;12.05;79.89;96127.16;5034664;28;20555;-52
2022/06/10 22:00:32;;;;;;;5.57;2.35;;;15.70;59.20;;;12.02;79.62;96125.00;5035690;28;20108;-52
2022/06/10 22:02:59;;;;;;;5.50;2.65;;;15.60;59.50;;;11.91;80.32;96131.34;5051192;28;20546;-53
2022/06/10 22:05:31;;;;;;;4.55;2.30;;;15.60;59.50;;;11.88;79.86;96129.22;5041114;28;20025;-48
2022/06/10 22:07:56;;;;;;;2.77;2.17;;;15.50;59.50;;;11.76;79.76;96127.53;5054380;28;20423;-50
2022/06/10 22:10:24;;;;;;;5.65;2.40;;;15.50;59.50;;;11.73;79.88;96133.38;5054291;28;20029;-51
2022/06/10 22:12:50;;;;;;;2.78;2.00;;;15.40;59.60;;;11.69;79.72;96134.97;5037753;28;20067;-50
2022/06/10 22:15:24;;;;;;;6.18;2.63;;;15.30;59.70;;;11.62;80.54;96138.91;5053972;28;20053;-48
2022/06/10 22:18:08;;;;;;;2.75;2.25;;;15.30;60.00;;;11.53;81.29;96128.72;5054199;28;20064;-50
2022/06/10 22:20:37;;;;;;;3.85;2.47;;;15.20;60.30;;;11.48;81.23;96133.22;5038789;28;20029;-49
2022/06/10 22:23:13;;;;;;;3.13;2.13;;;15.20;60.10;;;11.45;81.38;96141.75;5046161;28;20408;-53
2022/06/10 22:25:50;;;;;;;3.35;2.33;;;15.10;60.30;;;11.37;82.10;96135.00;5038138;28;20032;-53
2022/06/10 22:28:18;;;;;;;3.40;2.70;;;15.10;60.60;;;11.33;82.81;96141.91;5055256;28;20056;-48
2022/06/10 22:30:55;;;;;;;5.25;3.03;;;15.00;60.70;;;11.30;82.79;96139.75;5053914;28;20029;-48
2022/06/10 22:33:31;;;;;;;5.25;2.55;;;14.90;60.90;;;11.25;82.72;96127.19;5037911;28;20115;-50
2022/06/10 22:35:58;;;;;;;4.38;2.45;;;14.90;61.30;;;11.17;83.14;96111.66;5053050;28;20033;-49
2022/06/10 22:38:34;;;;;;;4.50;2.83;;;14.90;61.30;;;11.17;83.21;96119.66;5037187;28;20033;-49
2022/06/10 22:41:03;;;;;;;3.65;2.20;;;14.80;61.60;;;11.16;82.96;96123.38;5054877;28;20029;-52
